Time;durP1;ratioP1;P1;durP2;ratioP2;P2;SDS_P1;SDS_P2;PMS_P1;PMS_P2;Temp;Humidity;BMP_temperature;BMP_pressure;BME280_temperature;BME280_humidity;BME280_pressure;Samples;Min_cycle;Max_cycle;Signal;HPM_P1;HPM_P2
2022/11/04 00:01:25;;;;;;;2.77;2.57;;;;;;;12.52;80.11;99141.72;4995201;28;20272;-80
2022/11/04 00:03:53;;;;;;;3.90;2.93;;;;;;;12.50;79.85;99149.63;4997889;28;20205;-83
2022/11/04 00:06:19;;;;;;;3.57;3.17;;;;;;;12.46;78.63;99155.94;4996304;28;20673;-80
2022/11/04 00:08:48;;;;;;;3.43;3.17;;;;;;;12.51;79.15;99168.84;4996338;28;20598;-79
2022/11/04 00:13:59;;;;;;;6.47;3.17;;;;;;;12.52;80.02;99146.94;4995012;28;20741;-80
2022/11/04 00:19:11;;;;;;;3.50;3.20;;;;;;;12.58;79.80;99154.50;4995830;28;20248;-79
2022/11/04 00:29:51;;;;;;;4.70;3.47;;;;;;;12.60;81.29;99083.75;4994972;28;20740;-82
2022/11/04 00:35:04;;;;;;;3.67;3.33;;;;;;;12.59;82.00;99064.59;4995542;28;20278;-79
2022/11/04 00:37:30;;;;;;;3.97;3.13;;;;;;;12.59;83.11;99042.81;4995714;28;20214;-80
2022/11/04 00:39:57;;;;;;;5.17;3.73;;;;;;;12.51;83.91;99019.63;4995156;28;20237;-81
2022/11/04 00:42:23;;;;;;;3.50;3.20;;;;;;;12.49;83.50;99009.25;4994246;28;20205;-80
2022/11/04 00:44:50;;;;;;;4.47;3.90;;;;;;;12.52;83.58;99003.84;4994694;28;20218;-79
2022/11/04 00:47:16;;;;;;;4.07;3.33;;;;;;;12.57;83.33;99002.78;4993724;28;20213;-79
2022/11/04 00:49:44;;;;;;;4.00;3.50;;;;;;;12.56;83.43;99007.16;4994257;28;20230;-83
2022/11/04 00:52:10;;;;;;;3.73;3.40;;;;;;;12.58;83.43;99015.78;4994404;28;20598;-81
2022/11/04 00:54:37;;;;;;;3.43;3.10;;;;;;;12.60;82.95;99026.19;4994813;28;20234;-81
2022/11/04 00:57:03;;;;;;;4.27;3.20;;;;;;;12.62;83.37;99017.31;4994444;28;20210;-82
2022/11/04 00:59:30;;;;;;;3.83;3.33;;;;;;;12.63;83.01;99032.09;4995062;28;20233;-81
2022/11/04 01:01:56;;;;;;;3.43;3.10;;;;;;;12.69;82.25;99042.28;4994147;28;20215;-79
2022/11/04 01:04:23;;;;;;;4.07;3.30;;;;;;;12.59;82.50;99056.75;4994373;28;20210;-82
2022/11/04 01:06:50;;;;;;;3.53;3.23;;;;;;;12.63;82.68;99060.91;4993137;28;20221;-81
2022/11/04 01:09:17;;;;;;;3.47;3.17;;;;;;;12.66;82.36;99062.50;4994332;28;20238;-80
2022/11/04 01:11:43;;;;;;;2.90;2.70;;;;;;;12.65;82.49;99061.69;4993923;28;20591;-80
2022/11/04 01:14:10;;;;;;;2.77;2.50;;;;;;;12.64;82.65;99062.59;4993658;28;20236;-81
2022/11/04 01:16:37;;;;;;;3.33;2.40;;;;;;;12.69;82.90;99057.13;4995029;28;20689;-81
2022/11/04 01:19:04;;;;;;;2.90;2.70;;;;;;;12.66;83.58;99042.41;4992622;28;20234;-79
2022/11/04 01:21:31;;;;;;;3.73;3.43;;;;;;;12.70;83.86;99035.25;4993969;28;20217;-82
2022/11/04 01:23:59;;;;;;;3.53;2.60;;;;;;;12.62;84.82;99009.47;4993808;28;20210;-79
2022/11/04 01:26:27;;;;;;;3.40;2.87;;;;;;;12.58;86.25;98979.13;4993561;28;20218;-79
2022/11/04 01:28:55;;;;;;;3.60;2.73;;;;;;;12.50;87.83;98949.88;4993817;28;20241;-79
2022/11/04 01:31:24;;;;;;;2.87;2.67;;;;;;;12.47;90.03;98895.94;4993443;28;20209;-82
2022/11/04 01:33:52;;;;;;;5.13;3.43;;;;;;;12.20;92.21;98835.41;4991700;28;20217;-84
2022/11/04 01:36:19;;;;;;;3.60;3.30;;;;;;;12.12;93.93;98814.84;4993249;28;20237;-81
2022/11/04 01:38:46;;;;;;;3.37;3.07;;;;;;;12.19;94.19;98791.88;4993250;28;20241;-81
2022/11/04 01:41:18;;;;;;;4.17;3.20;;;;;;;12.27;93.63;98799.31;4993415;28;20218;-83
2022/11/04 01:43:49;;;;;;;4.60;3.33;;;;;;;12.34;93.42;98813.75;4993767;28;20678;-82
2022/11/04 01:46:23;;;;;;;3.70;3.37;;;;;;;12.37;93.62;98823.19;4994818;28;20210;-82
2022/11/04 01:48:51;;;;;;;4.30;3.37;;;;;;;12.37;93.33;98836.28;4995644;28;20225;-79
2022/11/04 01:51:19;;;;;;;3.80;3.40;;;;;;;12.37;94.44;98841.53;4995895;28;20211;-82
2022/11/04 01:53:47;;;;;;;2.60;2.40;;;;;;;12.35;93.95;98841.63;4994707;28;20229;-82
2022/11/04 01:56:16;;;;;;;2.33;2.23;;;;;;;12.34;93.80;98844.31;4994247;28;20577;-81
2022/11/04 01:58:48;;;;;;;2.03;1.93;;;;;;;12.35;94.19;98854.72;4994177;28;20234;-83
2022/11/04 02:01:14;;;;;;;3.70;2.80;;;;;;;12.35;94.17;98846.84;4995139;28;20218;-82
2022/11/04 02:03:48;;;;;;;2.80;2.50;;;;;;;12.36;94.21;98852.94;4996050;28;20207;-83
2022/11/04 02:06:16;;;;;;;3.27;2.10;;;;;;;12.29;93.96;98868.09;4994974;28;20220;-82
2022/11/04 02:08:43;;;;;;;2.43;1.97;;;;;;;12.32;94.22;98867.94;4994419;28;20225;-82
2022/11/04 02:11:10;;;;;;;2.33;2.20;;;;;;;12.30;94.56;98868.00;4995737;28;20206;-81
2022/11/04 02:13:37;;;;;;;2.50;2.30;;;;;;;12.32;94.33;98873.16;4997333;28;20211;-82
2022/11/04 02:16:14;;;;;;;2.90;1.97;;;;;;;12.36;94.34;98868.63;4996567;28;20281;-82
2022/11/04 02:19:01;;;;;;;2.50;2.30;;;;;;;12.35;94.26;98880.88;4995412;28;20231;-83
2022/11/04 02:21:50;;;;;;;2.07;1.90;;;;;;;12.19;94.86;98859.00;4995451;28;20239;-80
2022/11/04 02:24:55;;;;;;;2.23;2.03;;;;;;;12.23;95.63;98850.94;4994904;28;20205;-82
2022/11/04 02:27:34;;;;;;;2.23;1.77;;;;;;;12.07;95.65;98852.63;4946219;28;20209;-82
2022/11/04 02:30:08;;;;;;;1.80;1.70;;;;;;;12.07;95.40;98848.28;4995966;28;20243;-82
2022/11/04 02:32:47;;;;;;;2.10;1.80;;;;;;;12.08;94.74;98870.03;4995979;28;20292;-82
2022/11/04 02:35:21;;;;;;;1.70;1.60;;;;;;;12.12;94.85;98868.94;4996153;28;20292;-80
2022/11/04 02:37:57;;;;;;;2.13;1.80;;;;;;;12.06;96.22;98840.50;4996060;28;20213;-81
2022/11/04 02:40:33;;;;;;;1.70;1.60;;;;;;;12.00;96.27;98846.03;4994706;28;20237;-82
2022/11/04 02:43:05;;;;;;;1.60;1.50;;;;;;;11.96;96.62;98850.56;4992874;28;20216;-79
2022/11/04 02:45:40;;;;;;;1.67;1.57;;;;;;;11.92;96.37;98833.34;4993763;28;20309;-79
2022/11/04 02:48:11;;;;;;;1.43;1.33;;;;;;;11.97;96.93;98830.50;4996723;28;20221;-80
2022/11/04 02:50:44;;;;;;;2.10;1.57;;;;;;;11.80;96.41;98841.78;4997390;28;20209;-79
2022/11/04 02:53:18;;;;;;;1.70;1.47;;;;;;;11.80;96.24;98845.22;4997742;28;20240;-79
2022/11/04 02:55:48;;;;;;;1.63;1.53;;;;;;;11.85;96.27;98847.59;4997255;28;20258;-79
2022/11/04 02:58:21;;;;;;;2.47;1.60;;;;;;;11.91;95.44;98869.13;4997817;28;20204;-80
2022/11/04 03:00:51;;;;;;;1.43;1.33;;;;;;;12.01;95.16;98879.97;4997582;28;20214;-79
2022/11/04 03:03:21;;;;;;;1.30;1.20;;;;;;;12.02;94.07;98913.03;4997636;28;20206;-79
2022/11/04 03:05:52;;;;;;;1.03;1.03;;;;;;;11.87;93.52;98938.13;4997087;28;20246;-79
2022/11/04 03:08:24;;;;;;;1.20;1.10;;;;;;;11.98;93.30;98937.63;4997683;28;20217;-80
2022/11/04 03:10:54;;;;;;;1.50;1.40;;;;;;;11.88;92.06;98978.19;4997008;28;20200;-80
2022/11/04 03:13:29;;;;;;;1.20;1.07;;;;;;;11.85;91.29;99023.66;4997805;28;20351;-81
2022/11/04 03:16:00;;;;;;;1.33;0.97;;;;;;;11.86;90.70;99045.41;4997475;28;20230;-81
2022/11/04 03:18:34;;;;;;;1.57;1.20;;;;;;;11.61;89.18;99103.19;4996904;28;20234;-79
2022/11/04 03:21:05;;;;;;;2.13;1.80;;;;;;;11.52;89.28;99130.56;4996835;28;20209;-80
2022/11/04 03:23:32;;;;;;;1.80;1.63;;;;;;;11.52;89.75;99135.81;4997429;28;20215;-82
2022/11/04 03:26:09;;;;;;;2.87;2.00;;;;;;;11.51;90.28;99129.72;4997159;28;20208;-79
2022/11/04 03:28:43;;;;;;;2.10;1.80;;;;;;;11.52;91.02;99122.75;4997575;28;20238;-81
2022/11/04 03:31:18;;;;;;;2.87;1.40;;;;;;;11.58;91.09;99124.25;4996910;28;20209;-81
2022/11/04 03:33:48;;;;;;;1.20;1.20;;;;;;;11.44;90.44;99136.13;4995999;28;20204;-80
2022/11/04 03:36:15;;;;;;;1.00;1.00;;;;;;;11.48;89.75;99142.94;4996400;28;20269;-79
2022/11/04 03:38:42;;;;;;;2.90;0.93;;;;;;;11.61;89.23;99169.34;4996798;28;20264;-82
2022/11/04 03:41:14;;;;;;;1.10;1.00;;;;;;;11.61;89.20;99186.81;4996748;28;20211;-81
2022/11/04 03:43:41;;;;;;;1.00;1.00;;;;;;;11.55;89.09;99182.69;4996101;28;20681;-82
2022/11/04 03:46:08;;;;;;;1.03;1.03;;;;;;;11.14;89.34;99206.22;4996467;28;20823;-81
2022/11/04 03:48:36;;;;;;;1.10;1.00;;;;;;;11.21;89.69;99185.91;4997794;28;20231;-79
2022/11/04 03:51:03;;;;;;;1.20;1.10;;;;;;;11.29;89.69;99181.19;4996674;28;20219;-81
2022/11/04 03:53:31;;;;;;;1.77;1.23;;;;;;;11.00;88.33;99218.97;4997191;28;20217;-79
2022/11/04 03:56:14;;;;;;;2.30;1.30;;;;;;;11.01;87.39;99224.13;4996442;28;20235;-81
2022/11/04 03:58:49;;;;;;;1.60;1.53;;;;;;;11.01;86.66;99249.41;4996114;28;20311;-80
2022/11/04 04:01:30;;;;;;;1.80;1.70;;;;;;;11.12;85.81;99281.16;4996226;28;20710;-79
2022/11/04 04:04:06;;;;;;;2.50;2.13;;;;;;;11.16;86.52;99287.09;4997053;28;20687;-79
2022/11/04 04:06:35;;;;;;;3.00;2.77;;;;;;;11.19;86.82;99292.19;4996070;28;20225;-79
2022/11/04 04:09:09;;;;;;;3.00;2.80;;;;;;;11.03;86.26;99294.56;4996441;28;20229;-79
2022/11/04 04:11:41;;;;;;;3.40;3.20;;;;;;;10.80;86.56;99298.06;4996339;28;20215;-81
2022/11/04 04:14:37;;;;;;;2.93;2.70;;;;;;;10.90;87.94;99268.06;4996793;28;20215;-79
2022/11/04 04:17:05;;;;;;;2.47;2.30;;;;;;;11.01;90.59;99223.28;4997361;28;20209;-82
2022/11/04 04:19:34;;;;;;;2.40;2.20;;;;;;;10.92;89.14;99204.47;4996851;28;20233;-83
2022/11/04 04:22:06;;;;;;;1.90;1.80;;;;;;;11.04;88.19;99234.47;4995002;28;20213;-82
2022/11/04 04:27:32;;;;;;;1.67;1.57;;;;;;;11.02;86.54;99282.41;4962543;28;20264;-82
2022/11/04 04:30:02;;;;;;;1.80;1.70;;;;;;;11.13;86.80;99286.31;4995430;28;20234;-79
2022/11/04 04:32:32;;;;;;;2.10;2.00;;;;;;;11.24;86.47;99290.28;4995969;28;20209;-79
2022/11/04 04:37:42;;;;;;;1.93;1.73;;;;;;;10.99;86.40;99332.16;4995536;28;20217;-82
2022/11/04 04:45:43;;;;;;;1.97;1.87;;;;;;;11.30;86.21;99326.59;4995019;28;20211;-79
2022/11/04 04:48:12;;;;;;;2.67;2.40;;;;;;;11.04;85.15;99351.09;4995904;28;20232;-80
2022/11/04 04:50:44;;;;;;;2.00;1.90;;;;;;;11.11;85.20;99371.69;4995196;28;20211;-80
2022/11/04 04:53:11;;;;;;;1.90;1.80;;;;;;;10.99;83.94;99385.22;4994474;28;20215;-79
2022/11/04 04:55:37;;;;;;;2.00;1.90;;;;;;;11.02;84.66;99373.81;4995269;28;20238;-80
2022/11/04 04:58:03;;;;;;;2.30;2.20;;;;;;;11.07;84.60;99391.00;4995957;28;20213;-81
2022/11/04 05:00:31;;;;;;;2.20;2.00;;;;;;;11.01;83.92;99414.75;4995027;28;20556;-80
2022/11/04 05:02:57;;;;;;;2.20;2.10;;;;;;;11.10;83.75;99409.19;4994816;28;20301;-80
2022/11/04 05:05:24;;;;;;;2.03;1.93;;;;;;;11.11;83.91;99423.09;4995285;28;20798;-81
2022/11/04 05:07:52;;;;;;;2.80;1.80;;;;;;;10.79;84.66;99411.22;4994669;28;20213;-81
2022/11/04 05:10:19;;;;;;;1.90;1.80;;;;;;;10.91;84.85;99382.06;4994326;28;20230;-81
2022/11/04 05:15:30;;;;;;;2.43;2.23;;;;;;;10.95;85.86;99370.59;4994261;28;20602;-83
2022/11/04 05:17:58;;;;;;;1.90;1.80;;;;;;;10.99;84.97;99364.34;4994465;28;20221;-81
2022/11/04 05:20:25;;;;;;;2.23;2.03;;;;;;;11.04;84.92;99385.03;4993771;28;20229;-81
2022/11/04 05:22:54;;;;;;;2.20;2.10;;;;;;;10.99;84.41;99400.06;4994645;28;20213;-80
2022/11/04 05:25:20;;;;;;;1.90;1.80;;;;;;;10.93;83.67;99422.84;4995012;28;20204;-83
2022/11/04 05:27:47;;;;;;;2.23;2.00;;;;;;;10.97;83.45;99441.88;4993926;28;20215;-80
2022/11/04 05:30:13;;;;;;;2.33;2.23;;;;;;;10.81;83.45;99470.31;4994471;28;20252;-79
2022/11/04 05:32:39;;;;;;;3.03;2.83;;;;;;;10.91;83.74;99463.00;4994584;28;20212;-81
2022/11/04 05:35:07;;;;;;;2.40;2.30;;;;;;;10.88;83.58;99452.66;4994701;28;20233;-82
2022/11/04 05:37:34;;;;;;;2.27;2.17;;;;;;;10.80;83.58;99449.47;4994865;28;20217;-80
2022/11/04 05:40:01;;;;;;;2.43;2.33;;;;;;;10.95;83.48;99435.88;4994731;28;20243;-80
2022/11/04 05:42:28;;;;;;;2.00;1.90;;;;;;;10.86;82.97;99451.84;4994633;28;20588;-81
2022/11/04 05:44:54;;;;;;;3.37;2.30;;;;;;;10.69;83.19;99487.25;4994810;28;20207;-81
2022/11/04 05:47:21;;;;;;;2.67;2.57;;;;;;;10.76;84.16;99464.38;4994843;28;20204;-82
2022/11/04 05:49:47;;;;;;;3.20;3.00;;;;;;;10.71;84.07;99455.88;4994505;28;20724;-81
2022/11/04 05:52:14;;;;;;;3.03;2.83;;;;;;;10.87;84.87;99445.75;4994158;28;20216;-79
2022/11/04 05:54:40;;;;;;;2.70;2.50;;;;;;;10.96;85.08;99432.34;4994358;28;20215;-82
2022/11/04 05:57:09;;;;;;;2.93;2.73;;;;;;;11.06;84.78;99425.00;4993343;28;20228;-81
2022/11/04 05:59:35;;;;;;;2.70;2.50;;;;;;;11.10;85.14;99424.84;4993882;28;20635;-83
2022/11/04 06:02:02;;;;;;;2.10;2.00;;;;;;;11.13;85.41;99419.50;4995069;28;20210;-80
2022/11/04 06:04:29;;;;;;;2.50;2.30;;;;;;;11.14;85.62;99425.59;4994344;28;20211;-79
2022/11/04 06:06:55;;;;;;;3.00;2.80;;;;;;;11.25;84.09;99449.53;4994133;28;20210;-83
2022/11/04 06:09:37;;;;;;;2.80;2.60;;;;;;;11.26;84.13;99466.09;4994030;28;20249;-80
2022/11/04 06:12:05;;;;;;;3.03;2.77;;;;;;;11.17;83.08;99508.22;4993754;28;20216;-79
2022/11/04 06:14:33;;;;;;;2.33;2.23;;;;;;;11.21;83.35;99512.41;4993318;28;20206;-81
2022/11/04 06:16:59;;;;;;;4.60;3.10;;;;;;;11.20;83.88;99500.25;4993606;28;20603;-83
2022/11/04 06:19:26;;;;;;;3.27;3.07;;;;;;;11.27;83.07;99517.41;4993709;28;20653;-80
2022/11/04 06:21:53;;;;;;;3.43;3.13;;;;;;;11.23;82.61;99549.78;4996613;28;20213;-79
2022/11/04 06:24:19;;;;;;;2.80;2.43;;;;;;;11.15;82.56;99550.03;4997665;28;20220;-83
2022/11/04 06:26:45;;;;;;;2.80;2.60;;;;;;;11.11;82.48;99572.81;4997676;28;20205;-80
2022/11/04 06:29:12;;;;;;;2.90;2.80;;;;;;;11.16;82.16;99587.47;4996681;28;20259;-80
2022/11/04 06:31:40;;;;;;;2.37;2.20;;;;;;;11.06;81.46;99611.31;4997628;28;20202;-83
2022/11/04 06:34:06;;;;;;;2.67;2.50;;;;;;;11.10;82.41;99612.91;4997241;28;20213;-80
2022/11/04 06:36:32;;;;;;;3.50;2.40;;;;;;;10.87;80.31;99642.38;4998948;28;20266;-82
2022/11/04 06:38:59;;;;;;;3.10;2.27;;;;;;;10.83;81.68;99650.38;4999171;28;20609;-80
2022/11/04 06:41:25;;;;;;;2.40;2.20;;;;;;;10.89;82.38;99635.34;4997440;28;20590;-83
2022/11/04 06:43:52;;;;;;;3.90;2.03;;;;;;;10.92;81.49;99613.50;4998793;28;20205;-81
2022/11/04 06:46:27;;;;;;;2.20;2.10;;;;;;;10.99;81.43;99601.97;4997668;28;20212;-82
2022/11/04 06:48:56;;;;;;;2.47;2.10;;;;;;;11.04;81.31;99613.13;4997255;28;20230;-81
2022/11/04 06:51:22;;;;;;;2.97;2.23;;;;;;;10.99;80.69;99624.63;4997846;28;20692;-82
2022/11/04 06:53:49;;;;;;;2.00;1.80;;;;;;;11.05;80.27;99638.31;4997681;28;20213;-83
2022/11/04 06:56:15;;;;;;;2.90;2.30;;;;;;;11.07;80.05;99653.94;4997846;28;20610;-81
2022/11/04 06:58:42;;;;;;;2.20;2.10;;;;;;;11.08;79.97;99677.41;4986114;28;20233;-80
2022/11/04 07:01:09;;;;;;;2.50;2.30;;;;;;;11.08;79.71;99679.13;4997861;28;20210;-80
2022/11/04 07:03:35;;;;;;;3.30;2.10;;;;;;;11.09;80.16;99684.31;4997912;28;20293;-81
2022/11/04 07:06:07;;;;;;;2.17;2.07;;;;;;;11.07;79.71;99685.28;4998297;28;20205;-82
2022/11/04 07:08:34;;;;;;;4.90;2.40;;;;;;;11.04;79.68;99703.66;4999117;28;20236;-81
2022/11/04 07:11:01;;;;;;;2.43;2.23;;;;;;;11.07;80.41;99690.50;4998775;28;20206;-82
2022/11/04 07:13:27;;;;;;;2.60;2.47;;;;;;;11.10;80.73;99686.03;4999557;28;20678;-82
2022/11/04 07:15:54;;;;;;;3.03;2.50;;;;;;;11.13;80.74;99672.00;4998618;28;20617;-82
2022/11/04 07:18:20;;;;;;;2.77;2.57;;;;;;;11.15;80.04;99669.34;4998330;28;20215;-82
2022/11/04 07:20:47;;;;;;;3.33;2.60;;;;;;;11.24;79.37;99682.13;4997791;28;20233;-82
2022/11/04 07:23:15;;;;;;;4.07;2.90;;;;;;;11.04;78.46;99704.53;4998281;28;20304;-80
2022/11/04 07:25:41;;;;;;;3.50;3.00;;;;;;;10.92;78.44;99702.28;4997365;28;20597;-79
2022/11/04 07:28:08;;;;;;;3.30;2.90;;;;;;;10.95;78.90;99724.84;4997376;28;20245;-82
2022/11/04 07:30:35;;;;;;;6.77;3.03;;;;;;;10.98;78.75;99719.50;4997564;28;20216;-82
2022/11/04 07:33:01;;;;;;;4.73;3.00;;;;;;;11.10;79.07;99719.16;4996291;28;20208;-82
2022/11/04 07:35:27;;;;;;;3.20;2.77;;;;;;;11.13;79.15;99722.47;4998447;28;20205;-82
2022/11/04 07:37:55;;;;;;;2.67;2.47;;;;;;;11.19;79.28;99723.19;4997659;28;20817;-81
2022/11/04 07:40:23;;;;;;;3.43;3.13;;;;;;;11.22;79.57;99720.47;4962427;28;1028561;-82
2022/11/04 07:42:49;;;;;;;7.03;3.10;;;;;;;11.33;79.39;99720.97;4998311;28;20679;-81
2022/11/04 07:45:16;;;;;;;3.50;2.70;;;;;;;11.33;79.64;99721.81;4998816;28;20205;-80
2022/11/04 07:47:42;;;;;;;2.53;2.33;;;;;;;11.30;78.72;99745.44;4998830;28;20212;-79
2022/11/04 07:50:09;;;;;;;4.80;2.93;;;;;;;11.41;78.94;99747.69;4997782;28;20235;-81
2022/11/04 07:52:36;;;;;;;2.97;2.60;;;;;;;11.43;78.84;99747.66;4999214;28;20207;-83
2022/11/04 07:55:03;;;;;;;4.47;2.97;;;;;;;11.44;79.25;99731.09;4998617;28;20677;-81
2022/11/04 07:57:30;;;;;;;3.23;2.10;;;;;;;11.48;79.01;99746.59;4998166;28;20255;-81
2022/11/04 07:59:57;;;;;;;3.73;2.70;;;;;;;11.51;78.44;99750.84;4997743;28;20230;-80
2022/11/04 08:02:23;;;;;;;3.17;2.77;;;;;;;11.46;78.67;99751.03;4998379;28;20204;-81
2022/11/04 08:04:50;;;;;;;4.00;2.23;;;;;;;11.38;77.94;99776.56;4998403;28;20210;-82
2022/11/04 08:07:16;;;;;;;2.10;1.80;;;;;;;11.48;78.37;99762.28;4998556;28;20734;-82
2022/11/04 08:09:42;;;;;;;2.37;2.17;;;;;;;11.44;78.37;99767.66;4998251;28;20234;-82
2022/11/04 08:12:09;;;;;;;3.87;2.13;;;;;;;11.46;78.55;99758.84;4998067;28;20215;-80
2022/11/04 08:14:37;;;;;;;2.40;2.20;;;;;;;11.52;78.54;99758.66;4998720;28;20225;-81
2022/11/04 08:17:03;;;;;;;2.30;2.10;;;;;;;11.52;79.28;99758.66;4998329;28;20238;-82
2022/11/04 08:19:30;;;;;;;3.13;2.83;;;;;;;11.50;78.88;99757.00;4998788;28;20229;-79
2022/11/04 08:21:56;;;;;;;2.87;2.50;;;;;;;11.57;79.19;99744.56;4996756;28;20220;-81
2022/11/04 08:24:24;;;;;;;3.57;2.43;;;;;;;11.46;79.43;99732.72;4996979;28;20350;-82
2022/11/04 08:26:50;;;;;;;4.17;2.37;;;;;;;11.46;79.24;99730.13;4995583;28;20213;-80
2022/11/04 08:29:16;;;;;;;5.03;2.50;;;;;;;11.51;78.84;99741.25;4996976;28;20249;-81
2022/11/04 08:31:44;;;;;;;4.50;2.90;;;;;;;11.61;79.55;99733.09;4996368;28;20224;-80
2022/11/04 08:34:11;;;;;;;2.70;2.50;;;;;;;11.64;78.79;99735.63;4996158;28;20212;-80
2022/11/04 08:36:39;;;;;;;6.50;2.80;;;;;;;11.66;78.62;99742.50;4996573;28;20233;-81
2022/11/04 08:39:08;;;;;;;4.17;2.67;;;;;;;11.49;78.21;99763.13;4996616;28;20328;-81
2022/11/04 08:41:36;;;;;;;5.27;3.10;;;;;;;11.53;78.86;99749.91;4997029;28;20208;-81
2022/11/04 08:44:03;;;;;;;2.90;2.70;;;;;;;11.55;78.93;99739.38;4996622;28;20213;-80
2022/11/04 08:46:32;;;;;;;4.10;2.80;;;;;;;11.25;77.50;99783.94;4996739;28;20202;-81
2022/11/04 08:49:00;;;;;;;3.63;3.33;;;;;;;11.39;77.89;99778.25;4997578;28;20233;-80
2022/11/04 08:51:29;;;;;;;4.93;3.10;;;;;;;11.41;78.42;99781.66;4996972;28;20710;-79
2022/11/04 08:53:55;;;;;;;4.63;2.77;;;;;;;11.45;78.88;99783.28;4996963;28;20224;-81
2022/11/04 08:56:24;;;;;;;3.10;2.80;;;;;;;11.55;78.53;99777.75;4996321;28;20248;-81
2022/11/04 08:58:52;;;;;;;4.63;3.00;;;;;;;11.61;78.65;99788.00;4996338;28;20223;-81
2022/11/04 09:01:19;;;;;;;3.07;2.77;;;;;;;11.61;78.67;99790.59;4995934;28;20203;-80
2022/11/04 09:03:46;;;;;;;4.40;2.70;;;;;;;11.65;77.87;99813.13;4996369;28;20667;-79
2022/11/04 09:06:18;;;;;;;3.60;2.80;;;;;;;11.65;77.39;99821.81;4996084;28;20208;-81
2022/11/04 09:08:45;;;;;;;3.70;2.97;;;;;;;11.52;77.27;99847.50;4995453;28;20673;-82
2022/11/04 09:11:13;;;;;;;3.73;3.40;;;;;;;11.53;77.79;99833.56;4996232;28;20213;-82
2022/11/04 09:13:40;;;;;;;4.83;3.20;;;;;;;11.56;76.97;99839.59;4995749;28;20209;-79
2022/11/04 09:16:08;;;;;;;3.43;2.73;;;;;;;11.58;76.65;99863.91;4996167;28;20213;-81
2022/11/04 09:18:34;;;;;;;4.63;2.90;;;;;;;11.65;76.02;99870.63;4995641;28;20229;-82
2022/11/04 09:21:01;;;;;;;3.20;2.90;;;;;;;11.61;76.12;99895.16;4995491;28;20210;-81
2022/11/04 09:23:29;;;;;;;5.43;3.33;;;;;;;11.43;76.88;99880.94;4995951;28;20221;-81
2022/11/04 09:25:57;;;;;;;3.20;2.93;;;;;;;11.33;76.90;99873.38;4996285;28;20766;-80
2022/11/04 09:28:23;;;;;;;4.17;3.33;;;;;;;11.40;77.27;99845.31;4997284;28;20229;-80
2022/11/04 09:30:50;;;;;;;3.40;3.13;;;;;;;11.45;77.40;99825.09;4996708;28;20204;-85
2022/11/04 09:33:17;;;;;;;4.77;3.20;;;;;;;11.33;76.78;99826.34;4995941;28;20212;-81
2022/11/04 09:35:43;;;;;;;4.23;3.67;;;;;;;11.21;78.19;99818.03;4996150;28;20196;-82
2022/11/04 09:38:10;;;;;;;5.57;5.00;;;;;;;11.30;77.62;99820.38;4985543;28;20224;-81
2022/11/04 09:40:38;;;;;;;6.47;4.73;;;;;;;11.22;78.37;99804.94;4995909;28;20678;-80
2022/11/04 09:43:32;;;;;;;4.43;4.07;;;;;;;11.10;79.76;99747.88;4996714;28;20242;-81
2022/11/04 09:45:59;;;;;;;4.47;3.97;;;;;;;11.17;79.77;99725.84;4996246;28;20256;-81
2022/11/04 09:48:31;;;;;;;4.57;3.37;;;;;;;11.00;79.53;99720.31;4996187;28;20240;-81
2022/11/04 09:51:02;;;;;;;5.57;3.50;;;;;;;11.14;79.57;99705.06;4996770;28;20657;-81
2022/11/04 09:53:37;;;;;;;4.87;4.33;;;;;;;11.35;79.47;99706.09;4997359;28;20209;-81
2022/11/04 09:56:12;;;;;;;4.60;4.00;;;;;;;11.53;78.66;99708.09;4997931;28;20210;-82
2022/11/04 09:58:38;;;;;;;4.07;3.47;;;;;;;11.46;78.30;99731.88;5000595;28;20226;-79
2022/11/04 10:01:18;;;;;;;5.67;4.23;;;;;;;11.42;79.48;99710.22;4999873;28;20208;-81
2022/11/04 10:03:59;;;;;;;3.23;2.97;;;;;;;11.52;78.71;99714.22;5000260;28;20213;-81
2022/11/04 10:06:36;;;;;;;5.57;3.87;;;;;;;11.44;79.49;99718.84;4999736;28;20209;-80
2022/11/04 10:09:16;;;;;;;5.53;4.27;;;;;;;11.33;79.63;99727.03;4999747;28;20228;-81
2022/11/04 10:11:51;;;;;;;4.57;4.17;;;;;;;11.24;78.26;99735.22;4999992;28;20304;-81
2022/11/04 10:14:34;;;;;;;6.00;4.60;;;;;;;11.17;77.36;99774.63;4999980;28;20209;-81
2022/11/04 10:17:09;;;;;;;4.83;3.60;;;;;;;11.20;77.27;99805.88;5000369;28;20224;-81
2022/11/04 10:19:50;;;;;;;5.27;4.10;;;;;;;10.99;76.97;99823.09;4999591;28;20227;-80
2022/11/04 10:22:28;;;;;;;5.30;4.23;;;;;;;11.04;78.22;99816.81;4999982;28;20215;-80
2022/11/04 10:25:03;;;;;;;5.30;3.97;;;;;;;11.07;78.77;99795.81;5000225;28;20208;-80
2022/11/04 10:27:35;;;;;;;6.97;4.80;;;;;;;11.05;78.37;99810.69;4307462;28;10000709;-81
2022/11/04 10:30:04;;;;;;;5.83;5.13;;;;;;;11.24;78.27;99820.56;4997204;28;20232;-81
2022/11/04 10:32:36;;;;;;;6.10;5.50;;;;;;;11.39;78.07;99825.28;4996458;28;20227;-80
2022/11/04 10:35:13;;;;;;;5.47;5.00;;;;;;;11.45;77.71;99851.22;4997067;28;20209;-81
2022/11/04 10:37:40;;;;;;;5.67;5.07;;;;;;;11.52;76.99;99862.34;4996878;28;20248;-80
2022/11/04 10:40:17;;;;;;;5.60;5.10;;;;;;;11.62;77.25;99853.31;4996389;28;20482;-81
2022/11/04 10:42:46;;;;;;;5.00;4.27;;;;;;;11.42;77.15;99885.31;4996785;28;20289;-80
2022/11/04 10:45:14;;;;;;;6.27;4.13;;;;;;;11.48;77.53;99873.81;4996401;28;20211;-81
2022/11/04 10:47:47;;;;;;;5.63;4.70;;;;;;;11.47;77.07;99887.75;4997357;28;20215;-83
2022/11/04 10:50:34;;;;;;;5.20;4.70;;;;;;;11.46;76.48;99906.97;4989263;28;20239;-81
2022/11/04 10:53:13;;;;;;;5.23;4.63;;;;;;;11.40;76.21;99928.94;4977167;28;20217;-81
2022/11/04 10:55:47;;;;;;;7.33;4.30;;;;;;;11.51;75.92;99936.44;4977661;28;20217;-79
2022/11/04 10:58:21;;;;;;;5.83;4.00;;;;;;;11.20;75.79;99946.94;4976421;28;20610;-82
2022/11/04 11:00:48;;;;;;;4.47;3.60;;;;;;;11.26;75.92;99923.28;4990861;28;20208;-81
2022/11/04 11:03:24;;;;;;;4.83;3.80;;;;;;;11.45;76.25;99907.88;4995325;28;20681;-80
2022/11/04 11:05:51;;;;;;;4.27;3.27;;;;;;;11.48;74.43;99921.69;4995372;28;20208;-82
2022/11/04 11:08:29;;;;;;;4.90;3.20;;;;;;;11.50;75.01;99953.88;4995860;28;20215;-82
2022/11/04 11:10:56;;;;;;;5.27;3.27;;;;;;;11.49;74.85;99936.47;4995092;28;20213;-81
2022/11/04 11:13:26;;;;;;;3.53;3.23;;;;;;;11.52;74.18;99966.91;4995959;28;20251;-79
2022/11/04 11:16:06;;;;;;;3.37;3.00;;;;;;;11.60;75.50;99938.75;4995770;28;20684;-80
2022/11/04 11:18:33;;;;;;;4.33;3.87;;;;;;;11.54;74.13;99957.25;4995053;28;20241;-79
2022/11/04 11:21:12;;;;;;;4.17;2.87;;;;;;;11.67;74.48;99950.75;4994228;28;20212;-80
2022/11/04 11:23:42;;;;;;;5.03;3.60;;;;;;;11.73;74.31;99967.97;4994271;28;20240;-81
2022/11/04 11:26:11;;;;;;;4.43;3.20;;;;;;;11.78;73.44;99979.16;4993174;28;20220;-80
2022/11/04 11:28:41;;;;;;;6.87;3.10;;;;;;;11.65;71.76;100040.56;4995358;28;20232;-80
2022/11/04 11:31:15;;;;;;;3.53;3.23;;;;;;;11.63;71.83;100068.50;4997558;28;20337;-80
2022/11/04 11:33:49;;;;;;;2.80;2.60;;;;;;;11.79;72.01;100072.38;4996194;28;20407;-80
2022/11/04 11:36:20;;;;;;;3.67;3.33;;;;;;;11.71;72.60;100070.03;4996737;28;20221;-80
2022/11/04 11:39:15;;;;;;;3.40;3.20;;;;;;;11.69;74.44;100027.38;4998473;28;20231;-81
2022/11/04 11:41:51;;;;;;;5.23;3.83;;;;;;;11.86;74.54;99984.16;4995694;28;20204;-82
2022/11/04 11:44:25;;;;;;;5.37;3.17;;;;;;;11.82;72.91;100006.94;4993959;28;20204;-81
2022/11/04 11:46:54;;;;;;;3.63;3.33;;;;;;;11.87;72.91;100019.84;4997344;28;20201;-81
2022/11/04 11:49:27;;;;;;;3.67;3.20;;;;;;;11.85;73.08;100014.69;4996450;28;20225;-80
2022/11/04 11:51:55;;;;;;;4.60;3.77;;;;;;;11.88;72.37;100009.34;4998850;28;20220;-81
2022/11/04 11:54:33;;;;;;;4.67;4.17;;;;;;;11.88;72.55;100034.66;4997762;28;20220;-80
2022/11/04 11:57:04;;;;;;;6.03;4.17;;;;;;;11.95;71.70;100032.72;4994816;28;20570;-82
2022/11/04 11:59:38;;;;;;;3.90;3.60;;;;;;;12.03;71.73;100044.69;4994173;28;20608;-81
2022/11/04 12:02:24;;;;;;;6.17;4.03;;;;;;;12.10;71.53;100053.19;4994403;28;20227;-81
2022/11/04 12:04:53;;;;;;;4.40;3.17;;;;;;;12.25;71.84;100046.59;4994062;28;20688;-80
2022/11/04 12:07:27;;;;;;;5.40;4.10;;;;;;;12.24;71.32;100048.34;4995959;28;20303;-82
2022/11/04 12:10:02;;;;;;;5.33;3.70;;;;;;;12.11;70.80;100074.06;4996088;28;20237;-83
2022/11/04 12:12:49;;;;;;;3.67;3.37;;;;;;;12.16;71.34;100071.28;4995969;28;20213;-83
2022/11/04 12:15:29;;;;;;;4.00;3.50;;;;;;;12.34;72.24;100048.91;4994937;28;20225;-79